Time;durP1;ratioP1;P1;durP2;ratioP2;P2;SDS_P1;SDS_P2;PMS_P1;PMS_P2;Temp;Humidity;BMP_temperature;BMP_pressure;BME280_temperature;BME280_humidity;BME280_pressure;Samples;Min_cycle;Max_cycle;Signal;HPM_P1;HPM_P2
2022/07/22 00:01:19;;;;;;;12.35;5.38;;;;;;;14.79;100.00;102062.38;5111375;28;20031;-76
2022/07/22 00:07:06;;;;;;;15.52;5.88;;;;;;;14.75;100.00;102053.91;5112597;28;20548;-76
2022/07/22 00:09:33;;;;;;;15.50;6.28;;;;;;;14.83;100.00;102058.22;5111786;28;20047;-75
2022/07/22 00:15:20;;;;;;;15.80;5.63;;;;;;;14.86;100.00;102068.56;5112042;28;20051;-76
2022/07/22 00:21:07;;;;;;;19.92;7.50;;;;;;;14.87;100.00;102060.28;5112743;28;20441;-76
2022/07/22 00:23:32;;;;;;;16.52;7.32;;;;;;;14.85;100.00;102056.16;5112389;28;20028;-76
2022/07/22 00:29:19;;;;;;;22.20;7.60;;;;;;;14.85;100.00;102056.97;5112738;28;20050;-76
2022/07/22 00:31:44;;;;;;;19.03;6.27;;;;;;;14.87;100.00;102054.06;5112430;28;20106;-76
2022/07/22 00:34:10;;;;;;;18.13;6.88;;;;;;;14.89;100.00;102051.97;5111521;28;20285;-76
2022/07/22 00:36:35;;;;;;;13.37;7.03;;;;;;;14.85;100.00;102053.44;5112308;28;20027;-76
2022/07/22 00:39:00;;;;;;;16.80;7.03;;;;;;;14.89;100.00;102049.28;5111396;28;20364;-76
2022/07/22 00:41:26;;;;;;;16.17;7.05;;;;;;;14.92;100.00;102053.41;5112081;28;20020;-76
2022/07/22 00:43:53;;;;;;;20.00;7.28;;;;;;;14.94;100.00;102051.34;5110173;28;20130;-77
2022/07/22 00:53:01;;;;;;;19.23;7.75;;;;;;;14.97;100.00;102056.28;5112476;28;20066;-76
2022/07/22 00:55:28;;;;;;;23.48;7.72;;;;;;;14.94;100.00;102043.25;5111107;28;20515;-76
2022/07/22 00:57:53;;;;;;;17.95;7.63;;;;;;;14.95;100.00;102047.59;5110716;28;20399;-76
2022/07/22 01:00:21;;;;;;;16.23;7.20;;;;;;;14.96;100.00;102044.69;5093836;28;20024;-76
2022/07/22 01:06:08;;;;;;;25.92;7.10;;;;;;;14.92;100.00;102040.78;5111812;28;20043;-76
2022/07/22 01:08:34;;;;;;;19.50;7.28;;;;;;;14.88;100.00;102035.00;5110814;28;20476;-76
2022/07/22 01:14:21;;;;;;;23.08;7.82;;;;;;;14.82;100.00;102022.38;5111939;28;20392;-76
2022/07/22 01:16:47;;;;;;;19.20;6.97;;;;;;;14.77;100.00;102032.16;5110384;28;20036;-76
2022/07/22 01:19:12;;;;;;;25.35;7.50;;;;;;;14.71;100.00;102030.28;5110349;28;20291;-75
2022/07/22 01:25:00;;;;;;;19.77;7.45;;;;;;;14.52;100.00;102034.69;5113139;28;20166;-76
2022/07/22 01:30:49;;;;;;;21.88;7.32;;;;;;;14.37;100.00;102036.75;5115283;28;20123;-75
2022/07/22 01:33:15;;;;;;;15.00;7.45;;;;;;;14.31;100.00;102035.75;5114886;28;20034;-76
2022/07/22 01:35:40;;;;;;;16.73;8.00;;;;;;;14.17;100.00;102024.19;5115427;28;20024;-76
2022/07/22 01:38:06;;;;;;;23.67;7.33;;;;;;;14.14;100.00;102029.13;5114359;28;20119;-76
2022/07/22 01:43:53;;;;;;;20.73;7.28;;;;;;;14.05;100.00;102027.69;5115293;28;20076;-77
2022/07/22 01:49:40;;;;;;;20.65;7.20;;;;;;;13.95;100.00;102028.94;5115228;28;20131;-76
2022/07/22 01:55:27;;;;;;;14.40;7.18;;;;;;;13.97;100.00;102033.28;5115057;28;20680;-76
2022/07/22 02:04:42;;;;;;;17.08;7.45;;;;;;;14.07;100.00;102037.19;5114691;28;20043;-75
2022/07/22 02:07:07;;;;;;;18.13;7.40;;;;;;;14.07;100.00;102026.44;5114452;28;20096;-75
2022/07/22 02:12:55;;;;;;;21.00;6.43;;;;;;;14.15;100.00;102028.09;5114698;28;20039;-76
2022/07/22 02:22:42;;;;;;;22.17;7.22;;;;;;;14.34;100.00;102035.31;5114332;28;20039;-76
2022/07/22 02:25:08;;;;;;;19.00;7.60;;;;;;;14.38;100.00;102033.03;5114242;28;20142;-76
2022/07/22 02:27:33;;;;;;;17.00;7.47;;;;;;;14.38;100.00;102023.09;5114157;28;20034;-76
2022/07/22 02:33:20;;;;;;;17.52;7.03;;;;;;;14.41;100.00;102028.06;5114369;28;20038;-76
2022/07/22 02:35:46;;;;;;;17.48;7.05;;;;;;;14.38;100.00;102025.78;5112131;28;20023;-75
2022/07/22 02:38:11;;;;;;;23.80;7.80;;;;;;;14.40;100.00;102026.41;5114222;28;20433;-76
2022/07/22 02:40:36;;;;;;;23.40;7.97;;;;;;;14.39;100.00;102024.75;5113153;28;20269;-76
2022/07/22 02:43:05;;;;;;;19.42;8.75;;;;;;;14.42;100.00;102032.41;5114099;28;20683;-76
2022/07/22 02:48:52;;;;;;;20.98;7.70;;;;;;;14.42;100.00;102016.25;5114343;28;20576;-77
2022/07/22 02:51:18;;;;;;;20.73;8.00;;;;;;;14.36;100.00;102013.56;5113080;28;20099;-78
2022/07/22 02:53:43;;;;;;;20.23;7.88;;;;;;;14.40;100.00;102018.31;5095530;28;20289;-77
2022/07/22 02:56:08;;;;;;;18.73;8.15;;;;;;;14.41;100.00;102011.91;5112484;28;20411;-77
2022/07/22 02:58:34;;;;;;;21.52;8.77;;;;;;;14.43;100.00;102015.25;5112829;28;20108;-77
2022/07/22 03:04:21;;;;;;;24.15;8.27;;;;;;;14.46;100.00;102014.03;5113935;28;20047;-77
2022/07/22 03:06:46;;;;;;;22.25;8.45;;;;;;;14.49;100.00;102019.81;5113569;28;20031;-77
2022/07/22 03:09:11;;;;;;;27.73;9.35;;;;;;;14.49;100.00;102009.03;5112801;28;20558;-77
2022/07/22 03:11:37;;;;;;;20.85;8.40;;;;;;;14.51;100.00;102011.53;5095183;28;20038;-77
2022/07/22 03:14:02;;;;;;;20.98;9.40;;;;;;;14.49;100.00;102006.34;5112336;28;20023;-77
2022/07/22 03:16:27;;;;;;;22.55;8.35;;;;;;;14.54;100.00;102011.09;5111608;28;20050;-76
2022/07/22 03:18:52;;;;;;;23.43;8.87;;;;;;;14.51;100.00;102001.56;5113266;28;20028;-77
2022/07/22 03:21:18;;;;;;;25.90;9.73;;;;;;;14.50;100.00;101999.94;5112586;28;20315;-77
2022/07/22 03:23:43;;;;;;;21.23;8.55;;;;;;;14.48;100.00;102006.56;5112057;28;20274;-77
2022/07/22 03:29:30;;;;;;;20.02;8.30;;;;;;;14.46;100.00;101998.69;5113190;28;20382;-77
2022/07/22 03:31:55;;;;;;;20.03;8.57;;;;;;;14.49;100.00;101998.28;5113214;28;20452;-76
2022/07/22 03:34:20;;;;;;;25.10;9.70;;;;;;;14.49;100.00;102003.66;5112419;28;20308;-75
2022/07/22 03:40:08;;;;;;;18.23;8.80;;;;;;;14.53;100.00;102004.88;5113613;28;20524;-77
2022/07/22 03:45:55;;;;;;;25.75;9.15;;;;;;;14.46;100.00;102004.09;5113038;28;20080;-77
2022/07/22 03:51:41;;;;;;;22.52;8.43;;;;;;;14.49;100.00;102014.41;5113530;28;20304;-77
2022/07/22 03:57:29;;;;;;;26.88;7.95;;;;;;;14.45;100.00;102020.41;5113066;28;20563;-76
2022/07/22 03:59:54;;;;;;;20.77;8.57;;;;;;;14.43;100.00;102011.72;5094467;28;20111;-75
2022/07/22 04:02:19;;;;;;;20.08;9.02;;;;;;;14.45;100.00;102013.16;5093452;28;20044;-75
2022/07/22 04:08:06;;;;;;;22.02;7.70;;;;;;;14.54;100.00;102014.59;5112660;28;20068;-75
2022/07/22 04:10:32;;;;;;;19.00;8.63;;;;;;;14.52;100.00;102021.25;5112516;28;20031;-74
2022/07/22 04:16:19;;;;;;;16.42;7.75;;;;;;;14.60;100.00;102020.19;5113062;28;20054;-75
2022/07/22 04:22:06;;;;;;;24.88;9.57;;;;;;;14.60;100.00;102017.50;5112741;28;20042;-76
2022/07/22 04:27:52;;;;;;;20.88;8.63;;;;;;;14.69;100.00;102029.66;5112460;28;20397;-75
2022/07/22 04:33:40;;;;;;;19.23;8.88;;;;;;;14.65;100.00;102006.91;5112701;28;20558;-76
2022/07/22 04:36:06;;;;;;;23.52;8.98;;;;;;;14.72;100.00;102018.47;5112161;28;20055;-77
2022/07/22 04:41:53;;;;;;;18.52;9.15;;;;;;;14.81;100.00;102012.66;5112499;28;20047;-76
2022/07/22 04:47:40;;;;;;;22.52;8.68;;;;;;;15.00;100.00;102013.59;5112092;28;20080;-75
2022/07/22 04:53:27;;;;;;;25.75;9.63;;;;;;;15.05;100.00;102011.09;5112276;28;20730;-75
2022/07/22 04:59:14;;;;;;;18.08;8.65;;;;;;;15.16;100.00;102001.50;5112846;28;20077;-76
2022/07/22 05:05:01;;;;;;;18.20;8.48;;;;;;;15.20;100.00;102002.72;5115998;28;20038;-77
2022/07/22 05:10:48;;;;;;;19.83;9.35;;;;;;;15.35;100.00;102005.97;5115771;28;20047;-78
2022/07/22 05:16:37;;;;;;;25.83;9.80;;;;;;;15.47;100.00;101996.13;5115468;28;20280;-77
2022/07/22 05:19:04;;;;;;;26.58;11.45;;;;;;;15.49;100.00;101993.22;5114590;28;20096;-77
2022/07/22 05:24:51;;;;;;;21.70;10.07;;;;;;;15.78;100.00;101994.47;5115477;28;20100;-78
2022/07/22 05:30:38;;;;;;;25.92;10.48;;;;;;;16.12;100.00;102006.63;5115601;28;20514;-76
2022/07/22 05:36:25;;;;;;;27.42;10.45;;;;;;;16.20;100.00;101995.56;5115363;28;20408;-76
2022/07/22 05:42:11;;;;;;;22.88;11.23;;;;;;;17.08;100.00;101995.19;5115393;28;20372;-75
2022/07/22 05:44:37;;;;;;;20.35;10.60;;;;;;;17.77;100.00;102009.16;5114957;28;20055;-75
2022/07/22 05:47:02;;;;;;;23.25;9.00;;;;;;;17.91;100.00;102007.84;5113974;28;20045;-74
2022/07/22 05:49:27;;;;;;;27.35;10.55;;;;;;;17.86;100.00;102007.72;5114736;28;20043;-74
2022/07/22 05:51:53;;;;;;;23.55;10.10;;;;;;;18.14;100.00;102010.56;5113916;28;20055;-75
2022/07/22 05:54:19;;;;;;;20.65;9.38;;;;;;;18.39;100.00;102014.91;5114715;28;20023;-75
2022/07/22 05:56:44;;;;;;;21.20;9.13;;;;;;;18.34;100.00;102003.97;5113746;28;20051;-74
2022/07/22 05:59:09;;;;;;;18.07;8.40;;;;;;;18.09;100.00;102007.75;5114603;28;20031;-75
2022/07/22 06:04:56;;;;;;;23.23;9.00;;;;;;;18.19;100.00;101999.84;5114596;28;20280;-74
2022/07/22 06:10:43;;;;;;;21.38;8.98;;;;;;;18.95;100.00;102002.56;5114483;28;20122;-73
2022/07/22 06:13:09;;;;;;;20.05;8.68;;;;;;;19.33;100.00;102010.06;5114267;28;20061;-74
2022/07/22 06:15:34;;;;;;;24.95;9.73;;;;;;;19.38;100.00;102012.91;5113643;28;20107;-74
2022/07/22 06:17:59;;;;;;;20.77;9.18;;;;;;;19.25;100.00;101999.63;5096100;28;20055;-75
2022/07/22 06:20:25;;;;;;;20.60;9.87;;;;;;;19.31;100.00;102013.03;5113552;28;20043;-74
2022/07/22 06:22:50;;;;;;;20.90;8.65;;;;;;;19.43;100.00;102015.69;5114210;28;20462;-74
2022/07/22 06:25:15;;;;;;;22.90;8.75;;;;;;;19.26;100.00;102010.22;5113840;28;20055;-74
2022/07/22 06:27:40;;;;;;;20.60;7.93;;;;;;;19.22;100.00;102011.78;5113716;28;20472;-74
2022/07/22 06:30:06;;;;;;;13.45;7.00;;;;;;;19.22;100.00;102000.94;5095729;28;20032;-74
2022/07/22 06:32:32;;;;;;;17.92;7.22;;;;;;;19.30;99.53;102002.41;5113256;28;20122;-74
2022/07/22 06:34:57;;;;;;;18.45;7.20;;;;;;;19.47;100.00;102004.09;5114041;28;20027;-74
2022/07/22 06:37:22;;;;;;;19.98;7.20;;;;;;;19.97;99.41;102008.75;5113248;28;20044;-74
2022/07/22 06:39:48;;;;;;;21.97;7.70;;;;;;;20.92;95.48;102004.09;5113917;28;20035;-74
2022/07/22 06:42:13;;;;;;;15.88;7.28;;;;;;;22.29;89.60;102020.88;5113889;28;20734;-74
2022/07/22 06:44:38;;;;;;;14.43;5.20;;;;;;;23.35;78.48;101998.63;5113245;28;20110;-74
2022/07/22 06:47:04;;;;;;;16.53;5.60;;;;;;;23.68;73.37;102010.94;5113807;28;20023;-74
2022/07/22 06:49:29;;;;;;;16.77;5.63;;;;;;;23.35;75.73;102004.91;5113120;28;20465;-74
2022/07/22 06:51:54;;;;;;;13.82;5.03;;;;;;;23.18;74.42;102005.16;5113778;28;20028;-74
2022/07/22 06:54:19;;;;;;;9.53;4.27;;;;;;;22.97;75.10;102006.19;5112943;28;20039;-74
2022/07/22 06:56:45;;;;;;;15.77;5.97;;;;;;;23.20;73.26;102004.88;5113671;28;20265;-74
2022/07/22 06:59:10;;;;;;;18.98;5.35;;;;;;;24.28;70.88;102010.06;5113733;28;20081;-73
2022/07/22 07:01:35;;;;;;;14.85;5.53;;;;;;;24.51;67.44;102016.03;5112694;28;20067;-74
2022/07/22 07:04:01;;;;;;;13.47;5.73;;;;;;;24.29;68.22;102005.47;5113392;28;20024;-74
2022/07/22 07:06:27;;;;;;;12.23;5.72;;;;;;;24.42;67.19;102006.78;5112355;28;20868;-74
2022/07/22 07:08:52;;;;;;;17.65;5.70;;;;;;;24.44;67.49;102007.31;5113184;28;20102;-74
2022/07/22 07:11:18;;;;;;;11.15;4.57;;;;;;;24.54;60.98;102007.25;5111041;28;20067;-74
2022/07/22 07:13:43;;;;;;;14.80;5.15;;;;;;;24.19;65.50;102003.50;5113117;28;20395;-74
2022/07/22 07:16:08;;;;;;;16.55;4.40;;;;;;;23.59;65.19;102002.50;5113308;28;20521;-74
2022/07/22 07:18:34;;;;;;;7.23;3.17;;;;;;;23.15;67.25;102007.63;5112822;28;20400;-74
2022/07/22 07:20:59;;;;;;;13.87;4.17;;;;;;;23.85;65.21;101995.09;5095997;28;20286;-73
2022/07/22 07:23:24;;;;;;;10.20;3.88;;;;;;;24.12;61.37;101991.25;5112163;28;20368;-74
2022/07/22 07:29:11;;;;;;;13.25;4.38;;;;;;;23.33;64.55;101984.41;5114089;28;20050;-74
2022/07/22 07:31:36;;;;;;;16.73;5.70;;;;;;;23.11;65.80;101999.13;5078511;28;20367;-74
2022/07/22 07:34:02;;;;;;;12.17;6.17;;;;;;;22.74;67.72;101998.44;5112622;28;20328;-73
2022/07/22 07:36:27;;;;;;;17.45;5.45;;;;;;;22.39;68.37;101991.75;5113224;28;20322;-74
2022/07/22 07:38:52;;;;;;;14.37;5.90;;;;;;;22.19;70.81;101999.81;5111922;28;20373;-73
2022/07/22 07:41:18;;;;;;;18.57;7.10;;;;;;;21.78;72.88;101994.06;5112425;28;20281;-73
2022/07/22 07:43:43;;;;;;;21.02;6.70;;;;;;;21.48;71.86;101991.09;5113017;28;20265;-73
2022/07/22 07:46:09;;;;;;;19.13;6.85;;;;;;;21.26;72.81;102008.28;5112133;28;20441;-73
2022/07/22 07:48:34;;;;;;;16.45;6.18;;;;;;;21.17;75.65;101987.22;5112883;28;20570;-73
2022/07/22 07:51:00;;;;;;;17.30;6.50;;;;;;;21.62;72.22;101993.09;5112062;28;20039;-73
2022/07/22 07:53:26;;;;;;;14.85;6.32;;;;;;;23.40;66.33;101988.50;5112874;28;20080;-73
2022/07/22 07:55:51;;;;;;;19.13;5.80;;;;;;;25.24;59.83;101986.97;5094331;28;20031;-74
2022/07/22 07:58:16;;;;;;;15.85;6.18;;;;;;;26.92;56.95;102007.22;5097887;28;20046;-73
2022/07/22 08:00:42;;;;;;;10.75;3.55;;;;;;;28.30;47.06;101995.59;5111502;28;20024;-74
2022/07/22 08:03:08;;;;;;;10.50;3.78;;;;;;;29.28;40.79;102014.44;5111704;28;20503;-73
2022/07/22 08:05:33;;;;;;;5.63;3.38;;;;;;;30.27;38.76;101996.75;5112713;28;20050;-74
2022/07/22 08:07:59;;;;;;;7.97;2.80;;;;;;;30.90;36.30;101998.22;5110643;28;20119;-74
2022/07/22 08:10:24;;;;;;;5.95;2.90;;;;;;;31.90;35.17;101995.25;5112761;28;20085;-73
2022/07/22 08:12:51;;;;;;;8.07;3.33;;;;;;;32.49;34.09;101992.56;5112726;28;20049;-73
2022/07/22 08:15:16;;;;;;;6.80;3.13;;;;;;;32.10;32.86;101995.66;5111939;28;20036;-73
2022/07/22 08:17:41;;;;;;;8.10;2.72;;;;;;;30.67;34.99;101988.47;5112469;28;20039;-73
2022/07/22 08:20:08;;;;;;;9.90;3.10;;;;;;;29.31;40.54;101986.25;5111680;28;20122;-74
2022/07/22 08:22:33;;;;;;;6.57;2.83;;;;;;;28.15;41.34;101979.38;5112423;28;20050;-74
2022/07/22 08:24:58;;;;;;;8.88;3.13;;;;;;;27.03;43.55;101991.44;5110425;28;20130;-73
2022/07/22 08:27:24;;;;;;;14.30;4.80;;;;;;;26.14;46.52;101991.94;5112360;28;20100;-73
2022/07/22 08:29:49;;;;;;;12.40;4.78;;;;;;;25.52;51.97;101990.03;5112323;28;20285;-72
2022/07/22 08:32:14;;;;;;;16.50;5.00;;;;;;;25.00;50.87;101984.09;5110553;28;20055;-73
2022/07/22 08:34:39;;;;;;;14.37;4.83;;;;;;;24.61;54.42;101981.28;5113684;28;20031;-73
2022/07/22 08:37:05;;;;;;;11.47;4.40;;;;;;;24.40;54.84;101985.19;5115087;28;20293;-73
2022/07/22 08:39:30;;;;;;;11.07;4.50;;;;;;;24.09;55.81;101979.78;5115891;28;20341;-72
2022/07/22 08:41:57;;;;;;;13.43;4.38;;;;;;;24.11;55.01;101976.75;5115096;28;20372;-73
2022/07/22 08:47:49;;;;;;;13.77;4.55;;;;;;;23.99;56.42;101971.56;5116010;28;20155;-73
2022/07/22 08:50:16;;;;;;;14.82;4.75;;;;;;;24.02;55.60;101971.03;5115632;28;20368;-73
2022/07/22 08:52:41;;;;;;;19.80;4.28;;;;;;;24.03;53.02;101974.59;5115088;28;20026;-74
2022/07/22 08:55:07;;;;;;;14.23;4.15;;;;;;;24.08;53.00;101972.66;5115488;28;20035;-73
2022/07/22 08:57:33;;;;;;;8.75;4.22;;;;;;;25.25;52.15;101971.34;5115634;28;20035;-73
2022/07/22 09:00:00;;;;;;;11.32;4.28;;;;;;;26.25;46.53;101970.69;5114850;28;20047;-73
2022/07/22 09:02:27;;;;;;;11.75;4.55;;;;;;;26.35;46.84;101965.13;5096997;28;20035;-72
2022/07/22 09:04:56;;;;;;;11.65;4.43;;;;;;;27.16;43.93;101966.78;5114594;28;20048;-73
2022/07/22 09:07:28;;;;;;;12.23;4.50;;;;;;;28.45;43.50;101968.91;5115387;28;20136;-72
2022/07/22 09:09:54;;;;;;;;;;;;;;;29.44;43.66;101976.28;5115123;28;20134;-73
2022/07/22 09:12:19;;;;;;;13.65;4.40;;;;;;;29.71;40.92;101981.69;5115487;28;19986;-73
2022/07/22 09:14:47;;;;;;;14.50;4.65;;;;;;;30.29;38.78;101980.69;5115367;28;20031;-73
2022/07/22 09:17:29;;;;;;;11.32;4.95;;;;;;;30.94;38.79;101977.13;5114577;28;20441;-73
2022/07/22 09:19:56;;;;;;;10.60;4.85;;;;;;;30.80;36.09;101970.91;5115315;28;20034;-73
2022/07/22 09:22:45;;;;;;;11.45;4.55;;;;;;;31.44;38.74;101974.66;5096249;28;20039;-73
2022/07/22 09:25:37;;;;;;;12.93;5.20;;;;;;;33.17;38.19;101971.03;5096824;28;20042;-73
2022/07/22 09:28:05;;;;;;;;;;;;;;;33.50;36.87;101971.06;5109441;28;20047;-71
2022/07/22 09:30:32;;;;;;;11.65;4.53;;;;;;;33.46;32.32;101972.09;5114942;28;19918;-71
2022/07/22 09:32:58;;;;;;;14.23;4.20;;;;;;;34.40;32.95;101969.34;5114221;28;20046;-71
2022/07/22 09:35:24;;;;;;;12.05;5.05;;;;;;;34.30;30.96;101959.50;5115013;28;20111;-71
2022/07/22 09:37:57;;;;;;;11.40;4.10;;;;;;;33.33;34.40;101964.91;5114865;28;20431;-71
2022/07/22 09:40:26;;;;;;;11.32;3.80;;;;;;;31.44;33.49;101960.00;5114680;28;20100;-71
2022/07/22 09:42:57;;;;;;;11.13;4.22;;;;;;;29.87;38.21;101952.56;5114796;28;20144;-71
2022/07/22 09:45:25;;;;;;;8.90;4.40;;;;;;;29.00;38.26;101947.63;5113595;28;20156;-71
2022/07/22 09:47:50;;;;;;;12.52;4.80;;;;;;;28.94;41.27;101946.09;5096521;28;20024;-71
2022/07/22 09:50:24;;;;;;;10.55;4.53;;;;;;;28.82;40.87;101948.53;5113961;28;20044;-73
2022/07/22 09:52:52;;;;;;;11.20;4.70;;;;;;;28.15;40.84;101945.56;5115046;28;20031;-72
2022/07/22 09:55:19;;;;;;;13.38;4.03;;;;;;;27.87;43.81;101940.03;5099619;28;20647;-73
2022/07/22 09:57:45;;;;;;;13.00;4.53;;;;;;;27.85;42.47;101934.03;5114675;28;20034;-72
2022/07/22 10:00:16;;;;;;;10.20;4.50;;;;;;;27.88;42.48;101943.59;5114579;28;20029;-73
2022/07/22 10:02:48;;;;;;;18.55;4.75;;;;;;;26.87;44.74;101938.63;5099485;28;20039;-73
2022/07/22 10:05:15;;;;;;;11.88;5.03;;;;;;;26.46;47.21;101943.88;5114587;28;20484;-73
2022/07/22 10:11:04;;;;;;;11.45;4.85;;;;;;;25.41;49.91;101950.13;5114817;28;20518;-72
2022/07/22 10:13:31;;;;;;;14.70;5.35;;;;;;;25.09;49.45;101956.13;5113552;28;20208;-73
2022/07/22 10:15:57;;;;;;;12.52;5.00;;;;;;;24.86;49.29;101954.84;5114420;28;20099;-73
2022/07/22 10:18:25;;;;;;;10.65;4.95;;;;;;;24.74;49.87;101949.72;5113434;28;20127;-73
2022/07/22 10:24:17;;;;;;;11.77;5.30;;;;;;;25.13;47.89;101955.25;5114255;28;20084;-72
2022/07/22 10:30:05;;;;;;;10.18;5.22;;;;;;;25.40;48.01;101943.00;5113695;28;20074;-73
2022/07/22 10:35:57;;;;;;;17.23;8.00;;;;;;;24.94;46.80;101951.53;5114607;28;20042;-73
2022/07/22 10:38:24;;;;;;;18.75;7.10;;;;;;;25.17;48.34;101950.06;5096083;28;20437;-73
2022/07/22 10:44:12;;;;;;;19.40;9.02;;;;;;;26.11;47.45;101948.66;5114028;28;20039;-72
2022/07/22 10:50:40;;;;;;;15.38;7.70;;;;;;;27.16;44.01;101938.50;5114054;28;20095;-73
2022/07/22 10:53:12;;;;;;;14.57;8.05;;;;;;;27.98;42.10;101929.66;5113167;28;20059;-73
2022/07/22 10:55:58;;;;;;;17.52;7.80;;;;;;;29.37;43.04;101931.81;5113709;28;20106;-72
2022/07/22 11:01:50;;;;;;;12.63;6.40;;;;;;;29.46;41.77;101936.28;5113922;28;20035;-73
2022/07/22 11:07:45;;;;;;;15.25;7.13;;;;;;;27.36;43.10;101929.91;5113792;28;20058;-72
2022/07/22 11:10:15;;;;;;;17.38;7.57;;;;;;;27.46;44.56;101926.19;5112791;28;20031;-72
2022/07/22 11:16:14;;;;;;;14.63;7.18;;;;;;;27.15;43.25;101923.94;5113673;28;20510;-74
2022/07/22 11:22:07;;;;;;;15.75;7.60;;;;;;;26.14;43.75;101920.66;5113654;28;20034;-72
2022/07/22 11:24:33;;;;;;;15.68;7.85;;;;;;;25.75;46.70;101917.25;5113350;28;20368;-73
2022/07/22 11:27:00;;;;;;;15.05;7.93;;;;;;;25.54;47.59;101914.69;5112160;28;20050;-73
2022/07/22 11:29:33;;;;;;;21.42;7.78;;;;;;;25.28;45.64;101907.78;5113113;28;20098;-72
2022/07/22 11:32:00;;;;;;;14.48;7.82;;;;;;;25.20;47.31;101911.97;5112504;28;20031;-72
2022/07/22 11:34:26;;;;;;;13.63;6.75;;;;;;;25.20;48.68;101911.16;5111876;28;20027;-72
2022/07/22 11:36:53;;;;;;;16.40;8.43;;;;;;;25.68;50.62;101909.34;5113060;28;20450;-72
2022/07/22 11:39:25;;;;;;;26.55;7.97;;;;;;;26.31;47.72;101902.88;5112258;28;20119;-73
2022/07/22 11:41:52;;;;;;;16.95;6.95;;;;;;;26.77;46.63;101892.94;5113086;28;20035;-73
2022/07/22 11:44:23;;;;;;;15.82;7.75;;;;;;;26.69;45.21;101893.63;5112199;28;20105;-72
2022/07/22 11:46:50;;;;;;;16.58;8.32;;;;;;;26.45;44.44;101890.13;5112939;28;20034;-72
2022/07/22 11:49:18;;;;;;;15.43;8.52;;;;;;;26.24;45.63;101893.09;5112161;28;20159;-72
2022/07/22 11:51:44;;;;;;;16.17;8.80;;;;;;;25.75;47.11;101879.72;5112861;28;20024;-71
2022/07/22 11:57:31;;;;;;;17.63;9.30;;;;;;;24.93;49.00;101857.69;5113438;28;20046;-71
2022/07/22 12:03:18;;;;;;;15.32;9.30;;;;;;;25.99;47.02;101862.44;5112421;28;20469;-72
2022/07/22 12:05:43;;;;;;;13.63;9.65;;;;;;;27.05;45.92;101852.72;5111855;28;20024;-72
2022/07/22 12:08:09;;;;;;;16.13;9.15;;;;;;;27.34;41.99;101848.94;5111769;28;20044;-73
2022/07/22 12:10:34;;;;;;;16.65;8.55;;;;;;;27.34;42.11;101844.25;5111229;28;20028;-73
2022/07/22 12:12:59;;;;;;;16.75;8.93;;;;;;;27.16;44.66;101851.41;5111202;28;20455;-72
2022/07/22 12:15:25;;;;;;;13.53;8.17;;;;;;;26.83;44.38;101853.31;5112824;28;20590;-73
2022/07/22 12:17:50;;;;;;;17.23;10.13;;;;;;;26.28;45.02;101852.19;5093857;28;20150;-73
2022/07/22 12:20:15;;;;;;;15.90;9.40;;;;;;;26.11;44.90;101844.47;5112929;28;20028;-72
2022/07/22 12:26:03;;;;;;;17.40;10.00;;;;;;;27.17;43.68;101838.50;5112742;28;20092;-71
2022/07/22 12:28:28;;;;;;;16.60;10.02;;;;;;;27.26;42.86;101836.72;5111773;28;20051;-69
2022/07/22 12:30:55;;;;;;;19.85;9.73;;;;;;;26.65;44.56;101840.44;5112372;28;20039;-72
2022/07/22 12:36:45;;;;;;;18.65;10.05;;;;;;;25.87;45.82;101852.69;5112763;28;20113;-72
2022/07/22 12:42:43;;;;;;;18.65;10.63;;;;;;;26.44;45.92;101845.41;5112706;28;20110;-71
2022/07/22 12:45:11;;;;;;;16.58;9.43;;;;;;;26.64;45.20;101846.22;5111536;28;20463;-72
2022/07/22 12:48:05;;;;;;;16.38;9.93;;;;;;;26.97;45.37;101847.06;5112095;28;20110;-72
2022/07/22 12:50:36;;;;;;;16.85;10.13;;;;;;;27.11;44.51;101851.50;5112120;28;20031;-72
2022/07/22 12:53:04;;;;;;;16.20;9.75;;;;;;;27.39;44.93;101848.81;5104287;28;20035;-72
2022/07/22 12:55:31;;;;;;;13.00;9.18;;;;;;;27.41;43.24;101841.09;5111940;28;20482;-72
2022/07/22 13:01:18;;;;;;;18.73;10.45;;;;;;;26.69;41.08;101835.16;5112090;28;20089;-72
2022/07/22 13:07:05;;;;;;;19.45;9.77;;;;;;;26.03;42.76;101817.72;5111709;28;20185;-72
2022/07/22 13:09:30;;;;;;;18.83;10.10;;;;;;;25.82;43.35;101816.31;5110982;28;20138;-71
2022/07/22 13:15:18;;;;;;;16.50;9.63;;;;;;;25.96;45.74;101828.19;5112097;28;20042;-72
2022/07/22 13:21:05;;;;;;;21.10;10.98;;;;;;;26.18;45.52;101839.44;5114329;28;20046;-73
2022/07/22 13:23:31;;;;;;;18.67;10.90;;;;;;;26.23;45.14;101835.78;5096925;28;20028;-72
2022/07/22 13:25:56;;;;;;;17.02;10.98;;;;;;;26.04;45.71;101827.56;5114342;28;20039;-72
2022/07/22 13:28:23;;;;;;;16.48;10.35;;;;;;;25.98;45.33;101842.41;5115142;28;20038;-72
2022/07/22 13:30:48;;;;;;;16.60;9.60;;;;;;;26.12;44.52;101837.88;5114596;28;20464;-72
2022/07/22 13:33:15;;;;;;;16.07;10.67;;;;;;;26.15;42.18;101840.03;5114675;28;20047;-71
2022/07/22 13:35:41;;;;;;;19.75;10.43;;;;;;;26.15;44.36;101828.22;5114887;28;20099;-72
2022/07/22 13:38:06;;;;;;;18.10;9.60;;;;;;;25.99;47.39;101846.78;5113186;28;20135;-72
2022/07/22 13:40:31;;;;;;;15.93;9.77;;;;;;;25.78;47.44;101832.53;5113669;28;20285;-72
2022/07/22 13:42:58;;;;;;;14.77;10.07;;;;;;;25.55;48.21;101830.56;5114088;28;20107;-72
2022/07/22 13:48:45;;;;;;;15.65;9.93;;;;;;;25.56;47.32;101816.59;5114816;28;20086;-71
2022/07/22 13:51:10;;;;;;;14.65;10.43;;;;;;;25.38;47.48;101827.47;5114692;28;20051;-72
2022/07/22 13:53:36;;;;;;;16.58;10.07;;;;;;;25.31;47.67;101822.31;5113744;28;20023;-72
2022/07/22 13:56:02;;;;;;;18.92;10.52;;;;;;;25.12;49.74;101811.28;5114375;28;20047;-71
2022/07/22 13:58:28;;;;;;;18.08;10.85;;;;;;;25.17;50.45;101799.47;5114496;28;20084;-71
2022/07/22 14:00:53;;;;;;;16.98;11.05;;;;;;;25.17;49.92;101800.28;5113790;28;20138;-72
2022/07/22 14:03:19;;;;;;;16.90;10.77;;;;;;;25.39;50.29;101801.69;5114655;28;20035;-72
2022/07/22 14:05:44;;;;;;;19.58;10.05;;;;;;;25.41;47.72;101800.31;5113723;28;20464;-72
2022/07/22 14:08:10;;;;;;;19.65;11.05;;;;;;;25.45;47.56;101806.03;5114482;28;20029;-71
2022/07/22 14:10:35;;;;;;;16.75;9.90;;;;;;;25.34;48.05;101810.78;5113985;28;20502;-71
2022/07/22 14:13:01;;;;;;;16.05;10.88;;;;;;;25.22;47.03;101813.13;5114208;28;20047;-71
2022/07/22 14:15:26;;;;;;;18.13;10.85;;;;;;;24.92;50.02;101811.44;5114499;28;20496;-71
2022/07/22 14:17:51;;;;;;;17.77;10.43;;;;;;;24.50;48.75;101812.00;5113482;28;20039;-71
2022/07/22 14:20:16;;;;;;;20.43;11.47;;;;;;;24.30;49.41;101808.34;5114376;28;20277;-71
2022/07/22 14:22:42;;;;;;;22.20;11.57;;;;;;;24.34;53.01;101814.03;5112552;28;20312;-72
2022/07/22 14:25:07;;;;;;;19.80;11.67;;;;;;;24.56;50.68;101799.94;5114234;28;20073;-71
2022/07/22 14:27:33;;;;;;;17.33;9.63;;;;;;;24.75;50.77;101795.41;5113497;28;20035;-71
2022/07/22 14:33:19;;;;;;;17.42;10.35;;;;;;;25.15;49.21;101790.72;5113478;28;20447;-71
2022/07/22 14:35:45;;;;;;;18.20;11.07;;;;;;;25.36;47.87;101802.28;5095829;28;20039;-72
2022/07/22 14:38:10;;;;;;;19.43;10.73;;;;;;;25.41;46.05;101808.50;5112830;28;20281;-71
2022/07/22 14:40:35;;;;;;;19.77;10.87;;;;;;;25.24;46.19;101806.25;5113166;28;20301;-71
2022/07/22 14:43:00;;;;;;;16.73;10.90;;;;;;;25.20;47.44;101790.69;5114012;28;20352;-71
2022/07/22 14:45:26;;;;;;;18.20;10.67;;;;;;;25.24;48.30;101787.06;5113184;28;20300;-71
2022/07/22 14:47:51;;;;;;;18.93;11.70;;;;;;;25.10;48.53;101782.56;5095481;28;20316;-71
2022/07/22 14:50:16;;;;;;;18.60;11.50;;;;;;;24.97;49.72;101806.72;5113015;28;20057;-71
2022/07/22 14:52:42;;;;;;;16.43;11.00;;;;;;;24.93;48.10;101786.53;5113787;28;20280;-71
2022/07/22 14:55:07;;;;;;;20.83;11.80;;;;;;;24.92;48.95;101776.69;5095446;28;20027;-71
2022/07/22 14:57:32;;;;;;;22.73;11.23;;;;;;;24.70;51.85;101776.31;5098828;28;20788;-71